Time;durP1;ratioP1;P1;durP2;ratioP2;P2;SDS_P1;SDS_P2;PMS_P1;PMS_P2;Temp;Humidity;BMP_temperature;BMP_pressure;BME280_temperature;BME280_humidity;BME280_pressure;Samples;Min_cycle;Max_cycle;Signal;HPM_P1;HPM_P2
2020/07/08 00:00:25;;;;;;;4.150001;2.55;;;;;;;11.24;64.06348;95358.29;;;;
2020/07/08 00:01:28;;;;;;;4.150001;2.55;;;;;;;11.24;64.06348;95358.29;;;;
2020/07/08 00:02:28;;;;;;;4.150001;2.55;;;;;;;11.24;64.06348;95358.29;;;;
2020/07/08 00:03:29;;;;;;;4.150001;2.55;;;;;;;11.24;64.06348;95358.29;;;;
2020/07/08 00:04:29;;;;;;;4.150001;2.55;;;;;;;11.24;64.06348;95358.29;;;;
2020/07/08 00:05:30;;;;;;;4.150001;2.55;;;;;;;11.24;64.06348;95358.29;;;;
2020/07/08 00:06:31;;;;;;;4.150001;2.55;;;;;;;11.24;64.06348;95358.29;;;;
2020/07/08 00:07:31;;;;;;;4.150001;2.55;;;;;;;11.24;64.06348;95358.29;;;;
2020/07/08 00:08:31;;;;;;;4.150001;2.55;;;;;;;11.24;64.06348;95358.29;;;;
2020/07/08 00:09:32;;;;;;;4.15;2.65;;;;;;;11.18;64.56934;95344.93;;;;
2020/07/08 00:10:33;;;;;;;4.15;2.65;;;;;;;11.18;64.56934;95344.93;;;;
2020/07/08 00:11:33;;;;;;;4.15;2.65;;;;;;;11.18;64.56934;95344.93;;;;
2020/07/08 00:12:34;;;;;;;4.15;2.65;;;;;;;11.18;64.56934;95344.93;;;;
2020/07/08 00:13:34;;;;;;;4.15;2.65;;;;;;;11.18;64.56934;95344.93;;;;
2020/07/08 00:14:35;;;;;;;4.15;2.65;;;;;;;11.18;64.56934;95344.93;;;;
2020/07/08 00:15:35;;;;;;;4.15;2.65;;;;;;;11.18;64.56934;95344.93;;;;
2020/07/08 00:16:36;;;;;;;4.15;2.65;;;;;;;11.18;64.56934;95344.93;;;;
2020/07/08 00:17:36;;;;;;;4.15;2.65;;;;;;;11.18;64.56934;95344.93;;;;
2020/07/08 00:18:36;;;;;;;4.15;2.65;;;;;;;11.18;64.56934;95344.93;;;;
2020/07/08 00:19:37;;;;;;;3.55;2.55;;;;;;;11.07;64.8125;95332.67;;;;
2020/07/08 00:20:37;;;;;;;3.55;2.55;;;;;;;11.07;64.8125;95332.67;;;;
2020/07/08 00:21:38;;;;;;;3.55;2.55;;;;;;;11.07;64.8125;95332.67;;;;
2020/07/08 00:22:38;;;;;;;3.55;2.55;;;;;;;11.07;64.8125;95332.67;;;;
2020/07/08 00:23:39;;;;;;;3.55;2.55;;;;;;;11.07;64.8125;95332.67;;;;
2020/07/08 00:24:40;;;;;;;3.55;2.55;;;;;;;11.07;64.8125;95332.67;;;;
2020/07/08 00:25:40;;;;;;;3.55;2.55;;;;;;;11.07;64.8125;95332.67;;;;
2020/07/08 00:26:41;;;;;;;3.55;2.55;;;;;;;11.07;64.8125;95332.67;;;;
2020/07/08 00:27:41;;;;;;;3.55;2.55;;;;;;;11.07;64.8125;95332.67;;;;
2020/07/08 00:28:42;;;;;;;3.55;2.55;;;;;;;11.07;64.8125;95332.67;;;;
2020/07/08 00:29:42;;;;;;;3.55;2.55;;;;;;;11.07;64.8125;95332.67;;;;
2020/07/08 00:30:43;;;;;;;4.5;2.5;;;;;;;11.04;65.17285;95329.91;;;;
2020/07/08 00:31:43;;;;;;;4.5;2.5;;;;;;;11.04;65.17285;95329.91;;;;
2020/07/08 00:32:44;;;;;;;4.5;2.5;;;;;;;11.04;65.17285;95329.91;;;;
2020/07/08 00:33:45;;;;;;;4.5;2.5;;;;;;;11.04;65.17285;95329.91;;;;
2020/07/08 00:34:45;;;;;;;4.5;2.5;;;;;;;11.04;65.17285;95329.91;;;;
2020/07/08 00:35:46;;;;;;;4.5;2.5;;;;;;;11.04;65.17285;95329.91;;;;
2020/07/08 00:36:47;;;;;;;4.5;2.5;;;;;;;11.04;65.17285;95329.91;;;;
2020/07/08 00:37:47;;;;;;;4.5;2.5;;;;;;;11.04;65.17285;95329.91;;;;
2020/07/08 00:38:48;;;;;;;4.5;2.5;;;;;;;11.04;65.17285;95329.91;;;;
2020/07/08 00:39:49;;;;;;;4.5;2.5;;;;;;;11.04;65.17285;95329.91;;;;
2020/07/08 00:40:49;;;;;;;4.250001;2.65;;;;;;;10.97;65.62402;95328;;;;
2020/07/08 00:41:50;;;;;;;4.250001;2.65;;;;;;;10.97;65.62402;95328;;;;
2020/07/08 00:42:51;;;;;;;4.250001;2.65;;;;;;;10.97;65.62402;95328;;;;
2020/07/08 00:43:51;;;;;;;4.250001;2.65;;;;;;;10.97;65.62402;95328;;;;
2020/07/08 00:44:52;;;;;;;4.250001;2.65;;;;;;;10.97;65.62402;95328;;;;
2020/07/08 00:45:52;;;;;;;4.250001;2.65;;;;;;;10.97;65.62402;95328;;;;
2020/07/08 00:46:53;;;;;;;4.250001;2.65;;;;;;;10.97;65.62402;95328;;;;
2020/07/08 00:47:54;;;;;;;4.250001;2.65;;;;;;;10.97;65.62402;95328;;;;
2020/07/08 00:48:55;;;;;;;4.250001;2.65;;;;;;;10.97;65.62402;95328;;;;
2020/07/08 00:49:56;;;;;;;4.250001;2.65;;;;;;;10.97;65.62402;95328;;;;
2020/07/08 00:50:57;;;;;;;4.250001;2.65;;;;;;;10.97;65.62402;95328;;;;
2020/07/08 00:51:58;;;;;;;6.15;2.75;;;;;;;10.97;65.89355;95319.75;;;;
2020/07/08 00:52:58;;;;;;;6.15;2.75;;;;;;;10.97;65.89355;95319.75;;;;
2020/07/08 00:54:00;;;;;;;6.15;2.75;;;;;;;10.97;65.89355;95319.75;;;;
2020/07/08 00:55:00;;;;;;;6.15;2.75;;;;;;;10.97;65.89355;95319.75;;;;
2020/07/08 00:56:01;;;;;;;6.15;2.75;;;;;;;10.97;65.89355;95319.75;;;;
2020/07/08 00:57:02;;;;;;;6.15;2.75;;;;;;;10.97;65.89355;95319.75;;;;
2020/07/08 00:58:02;;;;;;;6.15;2.75;;;;;;;10.97;65.89355;95319.75;;;;
2020/07/08 00:59:03;;;;;;;6.15;2.75;;;;;;;10.97;65.89355;95319.75;;;;
2020/07/08 01:00:03;;;;;;;6.15;2.75;;;;;;;10.97;65.89355;95319.75;;;;
2020/07/08 01:01:06;;;;;;;6.15;2.75;;;;;;;10.97;65.89355;95319.75;;;;
2020/07/08 01:02:06;;;;;;;2.6;2.4;;;;;;;10.9;66.15039;95310.96;;;;
2020/07/08 01:03:07;;;;;;;2.6;2.4;;;;;;;10.9;66.15039;95310.96;;;;
2020/07/08 01:04:08;;;;;;;2.6;2.4;;;;;;;10.9;66.15039;95310.96;;;;
2020/07/08 01:05:08;;;;;;;2.6;2.4;;;;;;;10.9;66.15039;95310.96;;;;
2020/07/08 01:06:09;;;;;;;2.6;2.4;;;;;;;10.9;66.15039;95310.96;;;;
2020/07/08 01:07:09;;;;;;;2.6;2.4;;;;;;;10.9;66.15039;95310.96;;;;
2020/07/08 01:08:10;;;;;;;2.6;2.4;;;;;;;10.9;66.15039;95310.96;;;;
2020/07/08 01:09:10;;;;;;;2.6;2.4;;;;;;;10.9;66.15039;95310.96;;;;
2020/07/08 01:10:11;;;;;;;2.6;2.4;;;;;;;10.9;66.15039;95310.96;;;;
2020/07/08 01:11:11;;;;;;;2.6;2.4;;;;;;;10.9;66.15039;95310.96;;;;
2020/07/08 01:12:12;;;;;;;2.6;2.4;;;;;;;10.9;66.15039;95310.96;;;;
2020/07/08 01:13:14;;;;;;;6.25;2.6;;;;;;;10.95;66.55664;95309.71;;;;
2020/07/08 01:14:15;;;;;;;6.25;2.6;;;;;;;10.95;66.55664;95309.71;;;;
2020/07/08 01:15:15;;;;;;;6.25;2.6;;;;;;;10.95;66.55664;95309.71;;;;
2020/07/08 01:16:16;;;;;;;6.25;2.6;;;;;;;10.95;66.55664;95309.71;;;;
2020/07/08 01:17:16;;;;;;;6.25;2.6;;;;;;;10.95;66.55664;95309.71;;;;
2020/07/08 01:18:17;;;;;;;6.25;2.6;;;;;;;10.95;66.55664;95309.71;;;;
2020/07/08 01:19:17;;;;;;;6.25;2.6;;;;;;;10.95;66.55664;95309.71;;;;
2020/07/08 01:20:17;;;;;;;6.25;2.6;;;;;;;10.95;66.55664;95309.71;;;;
2020/07/08 01:21:26;;;;;;;6.25;2.6;;;;;;;10.95;66.55664;95309.71;;;;
2020/07/08 01:22:27;;;;;;;6.25;2.6;;;;;;;10.95;66.55664;95309.71;;;;
2020/07/08 01:23:28;;;;;;;3.3;2.35;;;;;;;10.88;66.79004;95300.12;;;;
2020/07/08 01:24:29;;;;;;;3.3;2.35;;;;;;;10.88;66.79004;95300.12;;;;
2020/07/08 01:25:29;;;;;;;3.3;2.35;;;;;;;10.88;66.79004;95300.12;;;;
2020/07/08 01:26:29;;;;;;;3.3;2.35;;;;;;;10.88;66.79004;95300.12;;;;
2020/07/08 01:27:30;;;;;;;3.3;2.35;;;;;;;10.88;66.79004;95300.12;;;;
2020/07/08 01:28:30;;;;;;;3.3;2.35;;;;;;;10.88;66.79004;95300.12;;;;
2020/07/08 01:29:31;;;;;;;3.3;2.35;;;;;;;10.88;66.79004;95300.12;;;;
2020/07/08 01:30:31;;;;;;;3.3;2.35;;;;;;;10.88;66.79004;95300.12;;;;
2020/07/08 01:31:32;;;;;;;3.3;2.35;;;;;;;10.88;66.79004;95300.12;;;;
2020/07/08 01:32:32;;;;;;;3.3;2.35;;;;;;;10.88;66.79004;95300.12;;;;
2020/07/08 01:33:33;;;;;;;3.3;2.35;;;;;;;10.88;66.79004;95300.12;;;;
2020/07/08 01:34:33;;;;;;;3.45;2.7;;;;;;;10.81;67.14551;95290.91;;;;
2020/07/08 01:35:34;;;;;;;3.45;2.7;;;;;;;10.81;67.14551;95290.91;;;;
2020/07/08 01:36:34;;;;;;;3.45;2.7;;;;;;;10.81;67.14551;95290.91;;;;
2020/07/08 01:37:35;;;;;;;3.45;2.7;;;;;;;10.81;67.14551;95290.91;;;;
2020/07/08 01:38:35;;;;;;;3.45;2.7;;;;;;;10.81;67.14551;95290.91;;;;
2020/07/08 01:39:36;;;;;;;3.45;2.7;;;;;;;10.81;67.14551;95290.91;;;;
2020/07/08 01:40:36;;;;;;;3.45;2.7;;;;;;;10.81;67.14551;95290.91;;;;
2020/07/08 01:41:37;;;;;;;3.45;2.7;;;;;;;10.81;67.14551;95290.91;;;;
2020/07/08 01:42:37;;;;;;;3.45;2.7;;;;;;;10.81;67.14551;95290.91;;;;
2020/07/08 01:43:38;;;;;;;3.45;2.7;;;;;;;10.81;67.14551;95290.91;;;;
2020/07/08 01:44:38;;;;;;;5.7;2.9;;;;;;;10.64;67.66602;95287.27;;;;
2020/07/08 01:45:39;;;;;;;5.7;2.9;;;;;;;10.64;67.66602;95287.27;;;;
2020/07/08 01:46:39;;;;;;;5.7;2.9;;;;;;;10.64;67.66602;95287.27;;;;
2020/07/08 01:47:40;;;;;;;5.7;2.9;;;;;;;10.64;67.66602;95287.27;;;;
2020/07/08 01:48:40;;;;;;;5.7;2.9;;;;;;;10.64;67.66602;95287.27;;;;
2020/07/08 01:49:41;;;;;;;5.7;2.9;;;;;;;10.64;67.66602;95287.27;;;;
2020/07/08 01:50:41;;;;;;;5.7;2.9;;;;;;;10.64;67.66602;95287.27;;;;
2020/07/08 01:51:42;;;;;;;5.7;2.9;;;;;;;10.64;67.66602;95287.27;;;;
2020/07/08 01:52:42;;;;;;;5.7;2.9;;;;;;;10.64;67.66602;95287.27;;;;
2020/07/08 01:53:43;;;;;;;5.7;2.9;;;;;;;10.64;67.66602;95287.27;;;;
2020/07/08 01:54:43;;;;;;;5.7;2.9;;;;;;;10.64;67.66602;95287.27;;;;
2020/07/08 01:55:44;;;;;;;6.3;3;;;;;;;10.6;68.41016;95286.5;;;;
2020/07/08 01:56:44;;;;;;;6.3;3;;;;;;;10.6;68.41016;95286.5;;;;
2020/07/08 01:57:45;;;;;;;6.3;3;;;;;;;10.6;68.41016;95286.5;;;;
2020/07/08 01:58:45;;;;;;;6.3;3;;;;;;;10.6;68.41016;95286.5;;;;
2020/07/08 01:59:46;;;;;;;6.3;3;;;;;;;10.6;68.41016;95286.5;;;;
2020/07/08 02:00:46;;;;;;;6.3;3;;;;;;;10.6;68.41016;95286.5;;;;
2020/07/08 02:01:47;;;;;;;6.3;3;;;;;;;10.6;68.41016;95286.5;;;;
2020/07/08 02:02:47;;;;;;;6.3;3;;;;;;;10.6;68.41016;95286.5;;;;
2020/07/08 02:03:48;;;;;;;6.3;3;;;;;;;10.6;68.41016;95286.5;;;;
2020/07/08 02:04:48;;;;;;;6.3;3;;;;;;;10.6;68.41016;95286.5;;;;
2020/07/08 02:05:48;;;;;;;4.15;2.7;;;;;;;10.56;68.74707;95279.41;;;;
2020/07/08 02:06:49;;;;;;;4.15;2.7;;;;;;;10.56;68.74707;95279.41;;;;
2020/07/08 02:07:49;;;;;;;4.15;2.7;;;;;;;10.56;68.74707;95279.41;;;;
2020/07/08 02:08:50;;;;;;;4.15;2.7;;;;;;;10.56;68.74707;95279.41;;;;
2020/07/08 02:09:50;;;;;;;4.15;2.7;;;;;;;10.56;68.74707;95279.41;;;;
2020/07/08 02:10:51;;;;;;;4.15;2.7;;;;;;;10.56;68.74707;95279.41;;;;
2020/07/08 02:11:51;;;;;;;4.15;2.7;;;;;;;10.56;68.74707;95279.41;;;;
2020/07/08 02:12:52;;;;;;;4.15;2.7;;;;;;;10.56;68.74707;95279.41;;;;
2020/07/08 02:13:52;;;;;;;4.15;2.7;;;;;;;10.56;68.74707;95279.41;;;;
2020/07/08 02:14:53;;;;;;;4.15;2.7;;;;;;;10.56;68.74707;95279.41;;;;
2020/07/08 02:15:53;;;;;;;4.15;2.7;;;;;;;10.56;68.74707;95279.41;;;;
2020/07/08 02:16:54;;;;;;;5.099999;2.9;;;;;;;10.58;69.2002;95274.73;;;;
2020/07/08 02:17:54;;;;;;;5.099999;2.9;;;;;;;10.58;69.2002;95274.73;;;;
2020/07/08 02:18:54;;;;;;;5.099999;2.9;;;;;;;10.58;69.2002;95274.73;;;;
2020/07/08 02:19:55;;;;;;;5.099999;2.9;;;;;;;10.58;69.2002;95274.73;;;;
2020/07/08 02:20:56;;;;;;;5.099999;2.9;;;;;;;10.58;69.2002;95274.73;;;;
2020/07/08 02:21:56;;;;;;;5.099999;2.9;;;;;;;10.58;69.2002;95274.73;;;;
2020/07/08 02:22:57;;;;;;;5.099999;2.9;;;;;;;10.58;69.2002;95274.73;;;;
2020/07/08 02:23:57;;;;;;;5.099999;2.9;;;;;;;10.58;69.2002;95274.73;;;;
2020/07/08 02:24:58;;;;;;;5.099999;2.9;;;;;;;10.58;69.2002;95274.73;;;;
2020/07/08 02:25:58;;;;;;;5.099999;2.9;;;;;;;10.58;69.2002;95274.73;;;;
2020/07/08 02:26:59;;;;;;;4.300001;3;;;;;;;10.54;69.5791;95271.26;;;;
2020/07/08 02:28:00;;;;;;;4.300001;3;;;;;;;10.54;69.5791;95271.26;;;;
2020/07/08 02:29:00;;;;;;;4.300001;3;;;;;;;10.54;69.5791;95271.26;;;;
2020/07/08 02:30:01;;;;;;;4.300001;3;;;;;;;10.54;69.5791;95271.26;;;;
2020/07/08 02:31:02;;;;;;;4.300001;3;;;;;;;10.54;69.5791;95271.26;;;;
2020/07/08 02:32:02;;;;;;;4.300001;3;;;;;;;10.54;69.5791;95271.26;;;;
2020/07/08 02:33:03;;;;;;;4.300001;3;;;;;;;10.54;69.5791;95271.26;;;;
2020/07/08 02:34:03;;;;;;;4.300001;3;;;;;;;10.54;69.5791;95271.26;;;;
2020/07/08 02:35:04;;;;;;;4.300001;3;;;;;;;10.54;69.5791;95271.26;;;;
2020/07/08 02:36:04;;;;;;;4.300001;3;;;;;;;10.54;69.5791;95271.26;;;;
2020/07/08 02:37:04;;;;;;;4.300001;3;;;;;;;10.54;69.5791;95271.26;;;;
2020/07/08 02:38:05;;;;;;;3;2.7;;;;;;;10.56;69.96777;95265.11;;;;
2020/07/08 02:39:05;;;;;;;3;2.7;;;;;;;10.56;69.96777;95265.11;;;;
2020/07/08 02:40:06;;;;;;;3;2.7;;;;;;;10.56;69.96777;95265.11;;;;
2020/07/08 02:41:07;;;;;;;3;2.7;;;;;;;10.56;69.96777;95265.11;;;;
2020/07/08 02:42:07;;;;;;;3;2.7;;;;;;;10.56;69.96777;95265.11;;;;
2020/07/08 02:43:08;;;;;;;3;2.7;;;;;;;10.56;69.96777;95265.11;;;;
2020/07/08 02:44:08;;;;;;;3;2.7;;;;;;;10.56;69.96777;95265.11;;;;
2020/07/08 02:45:09;;;;;;;3;2.7;;;;;;;10.56;69.96777;95265.11;;;;
2020/07/08 02:46:09;;;;;;;3;2.7;;;;;;;10.56;69.96777;95265.11;;;;
2020/07/08 02:47:10;;;;;;;3;2.7;;;;;;;10.56;69.96777;95265.11;;;;
2020/07/08 02:48:10;;;;;;;4.35;3.35;;;;;;;10.47;70.44727;95253.03;;;;
2020/07/08 02:49:11;;;;;;;4.35;3.35;;;;;;;10.47;70.44727;95253.03;;;;
2020/07/08 02:50:11;;;;;;;4.35;3.35;;;;;;;10.47;70.44727;95253.03;;;;
2020/07/08 02:51:12;;;;;;;4.35;3.35;;;;;;;10.47;70.44727;95253.03;;;;
2020/07/08 02:52:12;;;;;;;4.35;3.35;;;;;;;10.47;70.44727;95253.03;;;;
2020/07/08 02:53:13;;;;;;;4.35;3.35;;;;;;;10.47;70.44727;95253.03;;;;
2020/07/08 02:54:13;;;;;;;4.35;3.35;;;;;;;10.47;70.44727;95253.03;;;;
2020/07/08 02:55:14;;;;;;;4.35;3.35;;;;;;;10.47;70.44727;95253.03;;;;
2020/07/08 02:56:14;;;;;;;4.35;3.35;;;;;;;10.47;70.44727;95253.03;;;;
2020/07/08 02:57:15;;;;;;;4.35;3.35;;;;;;;10.47;70.44727;95253.03;;;;
2020/07/08 02:58:15;;;;;;;4.35;3.35;;;;;;;10.47;70.44727;95253.03;;;;
2020/07/08 02:59:16;;;;;;;4.2;2.750001;;;;;;;10.47;70.93945;95261.13;;;;
2020/07/08 03:00:16;;;;;;;4.2;2.750001;;;;;;;10.47;70.93945;95261.13;;;;
2020/07/08 03:01:17;;;;;;;4.2;2.750001;;;;;;;10.47;70.93945;95261.13;;;;
2020/07/08 03:02:17;;;;;;;4.2;2.750001;;;;;;;10.47;70.93945;95261.13;;;;
2020/07/08 03:03:18;;;;;;;4.2;2.750001;;;;;;;10.47;70.93945;95261.13;;;;
2020/07/08 03:04:19;;;;;;;4.2;2.750001;;;;;;;10.47;70.93945;95261.13;;;;
2020/07/08 03:05:19;;;;;;;4.2;2.750001;;;;;;;10.47;70.93945;95261.13;;;;
2020/07/08 03:06:20;;;;;;;4.2;2.750001;;;;;;;10.47;70.93945;95261.13;;;;
2020/07/08 03:07:20;;;;;;;4.2;2.750001;;;;;;;10.47;70.93945;95261.13;;;;
2020/07/08 03:08:21;;;;;;;4.2;2.750001;;;;;;;10.47;70.93945;95261.13;;;;
2020/07/08 03:09:21;;;;;;;6.25;3.2;;;;;;;10.42;71.28516;95263.58;;;;
2020/07/08 03:10:21;;;;;;;6.25;3.2;;;;;;;10.42;71.28516;95263.58;;;;
2020/07/08 03:11:22;;;;;;;6.25;3.2;;;;;;;10.42;71.28516;95263.58;;;;
2020/07/08 03:12:22;;;;;;;6.25;3.2;;;;;;;10.42;71.28516;95263.58;;;;
2020/07/08 03:13:23;;;;;;;6.25;3.2;;;;;;;10.42;71.28516;95263.58;;;;
2020/07/08 03:14:24;;;;;;;6.25;3.2;;;;;;;10.42;71.28516;95263.58;;;;
2020/07/08 03:15:24;;;;;;;6.25;3.2;;;;;;;10.42;71.28516;95263.58;;;;
2020/07/08 03:16:24;;;;;;;6.25;3.2;;;;;;;10.42;71.28516;95263.58;;;;
2020/07/08 03:17:25;;;;;;;6.25;3.2;;;;;;;10.42;71.28516;95263.58;;;;
2020/07/08 03:18:25;;;;;;;6.25;3.2;;;;;;;10.42;71.28516;95263.58;;;;
2020/07/08 03:19:26;;;;;;;6.25;3.2;;;;;;;10.42;71.28516;95263.58;;;;
2020/07/08 03:20:27;;;;;;;4.95;3.25;;;;;;;10.44;71.82324;95266.04;;;;
2020/07/08 03:21:27;;;;;;;4.95;3.25;;;;;;;10.44;71.82324;95266.04;;;;
2020/07/08 03:22:28;;;;;;;4.95;3.25;;;;;;;10.44;71.82324;95266.04;;;;
2020/07/08 03:23:29;;;;;;;4.95;3.25;;;;;;;10.44;71.82324;95266.04;;;;
2020/07/08 03:24:29;;;;;;;4.95;3.25;;;;;;;10.44;71.82324;95266.04;;;;
2020/07/08 03:25:29;;;;;;;4.95;3.25;;;;;;;10.44;71.82324;95266.04;;;;
2020/07/08 03:26:30;;;;;;;4.95;3.25;;;;;;;10.44;71.82324;95266.04;;;;
2020/07/08 03:27:30;;;;;;;4.95;3.25;;;;;;;10.44;71.82324;95266.04;;;;
2020/07/08 03:28:31;;;;;;;4.95;3.25;;;;;;;10.44;71.82324;95266.04;;;;
2020/07/08 03:29:31;;;;;;;4.95;3.25;;;;;;;10.44;71.82324;95266.04;;;;
2020/07/08 03:30:32;;;;;;;5.25;3.15;;;;;;;10.46;72.40625;95272.86;;;;
2020/07/08 03:31:32;;;;;;;5.25;3.15;;;;;;;10.46;72.40625;95272.86;;;;
2020/07/08 03:32:33;;;;;;;5.25;3.15;;;;;;;10.46;72.40625;95272.86;;;;
2020/07/08 03:33:33;;;;;;;5.25;3.15;;;;;;;10.46;72.40625;95272.86;;;;
2020/07/08 03:34:34;;;;;;;5.25;3.15;;;;;;;10.46;72.40625;95272.86;;;;
2020/07/08 03:35:34;;;;;;;5.25;3.15;;;;;;;10.46;72.40625;95272.86;;;;
2020/07/08 03:36:35;;;;;;;5.25;3.15;;;;;;;10.46;72.40625;95272.86;;;;
2020/07/08 03:37:35;;;;;;;5.25;3.15;;;;;;;10.46;72.40625;95272.86;;;;
2020/07/08 03:38:36;;;;;;;5.25;3.15;;;;;;;10.46;72.40625;95272.86;;;;
2020/07/08 03:39:36;;;;;;;5.25;3.15;;;;;;;10.46;72.40625;95272.86;;;;
2020/07/08 03:40:37;;;;;;;5.25;3.15;;;;;;;10.46;72.40625;95272.86;;;;
2020/07/08 03:41:38;;;;;;;5.000001;3.3;;;;;;;10.63;73.03027;95276.19;;;;
2020/07/08 03:42:39;;;;;;;5.000001;3.3;;;;;;;10.63;73.03027;95276.19;;;;
2020/07/08 03:43:40;;;;;;;5.000001;3.3;;;;;;;10.63;73.03027;95276.19;;;;
2020/07/08 03:44:40;;;;;;;5.000001;3.3;;;;;;;10.63;73.03027;95276.19;;;;
2020/07/08 03:45:41;;;;;;;5.000001;3.3;;;;;;;10.63;73.03027;95276.19;;;;
2020/07/08 03:46:42;;;;;;;5.000001;3.3;;;;;;;10.63;73.03027;95276.19;;;;
2020/07/08 03:47:42;;;;;;;5.000001;3.3;;;;;;;10.63;73.03027;95276.19;;;;
2020/07/08 03:48:43;;;;;;;5.000001;3.3;;;;;;;10.63;73.03027;95276.19;;;;
2020/07/08 03:49:44;;;;;;;5.000001;3.3;;;;;;;10.63;73.03027;95276.19;;;;
2020/07/08 03:50:44;;;;;;;5.000001;3.3;;;;;;;10.63;73.03027;95276.19;;;;
2020/07/08 03:51:45;;;;;;;5.45;3.25;;;;;;;10.78;73.5498;95288.65;;;;
2020/07/08 03:52:45;;;;;;;5.45;3.25;;;;;;;10.78;73.5498;95288.65;;;;
2020/07/08 03:53:46;;;;;;;5.45;3.25;;;;;;;10.78;73.5498;95288.65;;;;
2020/07/08 03:54:46;;;;;;;5.45;3.25;;;;;;;10.78;73.5498;95288.65;;;;
2020/07/08 03:55:47;;;;;;;5.45;3.25;;;;;;;10.78;73.5498;95288.65;;;;
2020/07/08 03:56:47;;;;;;;5.45;3.25;;;;;;;10.78;73.5498;95288.65;;;;
2020/07/08 03:57:48;;;;;;;5.45;3.25;;;;;;;10.78;73.5498;95288.65;;;;
2020/07/08 03:58:48;;;;;;;5.45;3.25;;;;;;;10.78;73.5498;95288.65;;;;
2020/07/08 03:59:49;;;;;;;5.45;3.25;;;;;;;10.78;73.5498;95288.65;;;;
2020/07/08 04:00:49;;;;;;;5.45;3.25;;;;;;;10.78;73.5498;95288.65;;;;
2020/07/08 04:01:50;;;;;;;5.45;3.25;;;;;;;10.78;73.5498;95288.65;;;;
2020/07/08 04:02:50;;;;;;;5.55;3.2;;;;;;;10.99;73.86328;95288.06;;;;
2020/07/08 04:03:50;;;;;;;5.55;3.2;;;;;;;10.99;73.86328;95288.06;;;;
2020/07/08 04:04:51;;;;;;;5.55;3.2;;;;;;;10.99;73.86328;95288.06;;;;
2020/07/08 04:05:51;;;;;;;5.55;3.2;;;;;;;10.99;73.86328;95288.06;;;;
2020/07/08 04:06:52;;;;;;;5.55;3.2;;;;;;;10.99;73.86328;95288.06;;;;
2020/07/08 04:07:52;;;;;;;5.55;3.2;;;;;;;10.99;73.86328;95288.06;;;;
2020/07/08 04:08:53;;;;;;;5.55;3.2;;;;;;;10.99;73.86328;95288.06;;;;
2020/07/08 04:09:53;;;;;;;5.55;3.2;;;;;;;10.99;73.86328;95288.06;;;;
2020/07/08 04:10:54;;;;;;;5.55;3.2;;;;;;;10.99;73.86328;95288.06;;;;
2020/07/08 04:11:56;;;;;;;5.55;3.2;;;;;;;10.99;73.86328;95288.06;;;;
2020/07/08 04:12:57;;;;;;;5.9;3.45;;;;;;;11.18;74.3457;95285.06;;;;
2020/07/08 04:13:58;;;;;;;5.9;3.45;;;;;;;11.18;74.3457;95285.06;;;;
2020/07/08 04:15:00;;;;;;;5.9;3.45;;;;;;;11.18;74.3457;95285.06;;;;
2020/07/08 04:16:03;;;;;;;5.9;3.45;;;;;;;11.18;74.3457;95285.06;;;;
2020/07/08 04:17:06;;;;;;;5.9;3.45;;;;;;;11.18;74.3457;95285.06;;;;
2020/07/08 04:18:06;;;;;;;5.9;3.45;;;;;;;11.18;74.3457;95285.06;;;;
2020/07/08 04:19:07;;;;;;;5.9;3.45;;;;;;;11.18;74.3457;95285.06;;;;
2020/07/08 04:20:08;;;;;;;5.9;3.45;;;;;;;11.18;74.3457;95285.06;;;;
2020/07/08 04:21:08;;;;;;;5.9;3.45;;;;;;;11.18;74.3457;95285.06;;;;
2020/07/08 04:22:09;;;;;;;5.9;3.45;;;;;;;11.18;74.3457;95285.06;;;;
2020/07/08 04:23:09;;;;;;;5.9;3.45;;;;;;;11.18;74.3457;95285.06;;;;
2020/07/08 04:24:10;;;;;;;6.250001;3.3;;;;;;;11.46;74.61816;95297.27;;;;
2020/07/08 04:25:10;;;;;;;6.250001;3.3;;;;;;;11.46;74.61816;95297.27;;;;
2020/07/08 04:26:11;;;;;;;6.250001;3.3;;;;;;;11.46;74.61816;95297.27;;;;
2020/07/08 04:27:11;;;;;;;6.250001;3.3;;;;;;;11.46;74.61816;95297.27;;;;
2020/07/08 04:28:12;;;;;;;6.250001;3.3;;;;;;;11.46;74.61816;95297.27;;;;
2020/07/08 04:29:13;;;;;;;6.250001;3.3;;;;;;;11.46;74.61816;95297.27;;;;
2020/07/08 04:30:13;;;;;;;6.250001;3.3;;;;;;;11.46;74.61816;95297.27;;;;
2020/07/08 04:31:14;;;;;;;6.250001;3.3;;;;;;;11.46;74.61816;95297.27;;;;
2020/07/08 04:32:14;;;;;;;6.250001;3.3;;;;;;;11.46;74.61816;95297.27;;;;
2020/07/08 04:33:15;;;;;;;6.250001;3.3;;;;;;;11.46;74.61816;95297.27;;;;
2020/07/08 04:34:15;;;;;;;4.9;3;;;;;;;11.7;74.77832;95306.42;;;;
2020/07/08 04:35:16;;;;;;;4.9;3;;;;;;;11.7;74.77832;95306.42;;;;
2020/07/08 04:36:17;;;;;;;4.9;3;;;;;;;11.7;74.77832;95306.42;;;;
2020/07/08 04:37:17;;;;;;;4.9;3;;;;;;;11.7;74.77832;95306.42;;;;
2020/07/08 04:38:18;;;;;;;4.9;3;;;;;;;11.7;74.77832;95306.42;;;;
2020/07/08 04:39:18;;;;;;;4.9;3;;;;;;;11.7;74.77832;95306.42;;;;
2020/07/08 04:40:19;;;;;;;4.9;3;;;;;;;11.7;74.77832;95306.42;;;;
2020/07/08 04:41:20;;;;;;;4.9;3;;;;;;;11.7;74.77832;95306.42;;;;
2020/07/08 04:42:21;;;;;;;4.9;3;;;;;;;11.7;74.77832;95306.42;;;;
2020/07/08 04:43:21;;;;;;;4.9;3;;;;;;;11.7;74.77832;95306.42;;;;
2020/07/08 04:44:22;;;;;;;4.9;3;;;;;;;11.7;74.77832;95306.42;;;;
2020/07/08 04:45:22;;;;;;;6.850001;3.3;;;;;;;12.07;74.89453;95299.65;;;;
2020/07/08 04:46:23;;;;;;;6.850001;3.3;;;;;;;12.07;74.89453;95299.65;;;;
2020/07/08 04:47:23;;;;;;;6.850001;3.3;;;;;;;12.07;74.89453;95299.65;;;;
2020/07/08 04:48:24;;;;;;;6.850001;3.3;;;;;;;12.07;74.89453;95299.65;;;;
2020/07/08 04:49:24;;;;;;;6.850001;3.3;;;;;;;12.07;74.89453;95299.65;;;;
2020/07/08 04:50:25;;;;;;;6.850001;3.3;;;;;;;12.07;74.89453;95299.65;;;;
2020/07/08 04:51:26;;;;;;;6.850001;3.3;;;;;;;12.07;74.89453;95299.65;;;;
2020/07/08 04:52:26;;;;;;;6.850001;3.3;;;;;;;12.07;74.89453;95299.65;;;;
2020/07/08 04:53:27;;;;;;;6.850001;3.3;;;;;;;12.07;74.89453;95299.65;;;;
2020/07/08 04:54:27;;;;;;;6.850001;3.3;;;;;;;12.07;74.89453;95299.65;;;;
2020/07/08 04:55:28;;;;;;;6.900001;3.2;;;;;;;12.41;75.11328;95309.42;;;;
2020/07/08 04:56:28;;;;;;;6.900001;3.2;;;;;;;12.41;75.11328;95309.42;;;;
2020/07/08 04:57:29;;;;;;;6.900001;3.2;;;;;;;12.41;75.11328;95309.42;;;;
2020/07/08 04:58:30;;;;;;;6.900001;3.2;;;;;;;12.41;75.11328;95309.42;;;;
2020/07/08 04:59:30;;;;;;;6.900001;3.2;;;;;;;12.41;75.11328;95309.42;;;;
2020/07/08 05:00:31;;;;;;;6.900001;3.2;;;;;;;12.41;75.11328;95309.42;;;;
2020/07/08 05:01:32;;;;;;;6.900001;3.2;;;;;;;12.41;75.11328;95309.42;;;;
2020/07/08 05:02:32;;;;;;;6.900001;3.2;;;;;;;12.41;75.11328;95309.42;;;;
2020/07/08 05:03:33;;;;;;;6.900001;3.2;;;;;;;12.41;75.11328;95309.42;;;;
2020/07/08 05:04:33;;;;;;;6.900001;3.2;;;;;;;12.41;75.11328;95309.42;;;;
2020/07/08 05:05:34;;;;;;;6.900001;3.2;;;;;;;12.41;75.11328;95309.42;;;;
2020/07/08 05:06:34;;;;;;;4.8;2.85;;;;;;;12.93;74.41602;95316.71;;;;
2020/07/08 05:07:34;;;;;;;4.8;2.85;;;;;;;12.93;74.41602;95316.71;;;;
2020/07/08 05:08:35;;;;;;;4.8;2.85;;;;;;;12.93;74.41602;95316.71;;;;
2020/07/08 05:09:35;;;;;;;4.8;2.85;;;;;;;12.93;74.41602;95316.71;;;;
2020/07/08 05:10:36;;;;;;;4.8;2.85;;;;;;;12.93;74.41602;95316.71;;;;
2020/07/08 05:11:36;;;;;;;4.8;2.85;;;;;;;12.93;74.41602;95316.71;;;;
2020/07/08 05:12:37;;;;;;;4.8;2.85;;;;;;;12.93;74.41602;95316.71;;;;
2020/07/08 05:13:37;;;;;;;4.8;2.85;;;;;;;12.93;74.41602;95316.71;;;;
2020/07/08 05:14:38;;;;;;;4.8;2.85;;;;;;;12.93;74.41602;95316.71;;;;
2020/07/08 05:15:38;;;;;;;4.8;2.85;;;;;;;12.93;74.41602;95316.71;;;;
2020/07/08 05:16:39;;;;;;;7.699999;3;;;;;;;13.42;73.71387;95319.3;;;;
2020/07/08 05:17:39;;;;;;;7.699999;3;;;;;;;13.42;73.71387;95319.3;;;;
2020/07/08 05:18:40;;;;;;;7.699999;3;;;;;;;13.42;73.71387;95319.3;;;;
2020/07/08 05:19:40;;;;;;;7.699999;3;;;;;;;13.42;73.71387;95319.3;;;;
2020/07/08 05:20:41;;;;;;;7.699999;3;;;;;;;13.42;73.71387;95319.3;;;;
2020/07/08 05:21:41;;;;;;;7.699999;3;;;;;;;13.42;73.71387;95319.3;;;;
2020/07/08 05:22:42;;;;;;;7.699999;3;;;;;;;13.42;73.71387;95319.3;;;;
2020/07/08 05:23:42;;;;;;;7.699999;3;;;;;;;13.42;73.71387;95319.3;;;;
2020/07/08 05:24:43;;;;;;;7.699999;3;;;;;;;13.42;73.71387;95319.3;;;;
2020/07/08 05:25:43;;;;;;;7.699999;3;;;;;;;13.42;73.71387;95319.3;;;;
2020/07/08 05:26:44;;;;;;;7.699999;3;;;;;;;13.42;73.71387;95319.3;;;;
2020/07/08 05:27:45;;;;;;;4.7;2.9;;;;;;;14.03;73.08301;95314.98;;;;
2020/07/08 05:28:45;;;;;;;4.7;2.9;;;;;;;14.03;73.08301;95314.98;;;;
2020/07/08 05:29:46;;;;;;;4.7;2.9;;;;;;;14.03;73.08301;95314.98;;;;
2020/07/08 05:30:46;;;;;;;4.7;2.9;;;;;;;14.03;73.08301;95314.98;;;;
2020/07/08 05:31:47;;;;;;;4.7;2.9;;;;;;;14.03;73.08301;95314.98;;;;
2020/07/08 05:32:48;;;;;;;4.7;2.9;;;;;;;14.03;73.08301;95314.98;;;;
2020/07/08 05:33:48;;;;;;;4.7;2.9;;;;;;;14.03;73.08301;95314.98;;;;
2020/07/08 05:34:49;;;;;;;4.7;2.9;;;;;;;14.03;73.08301;95314.98;;;;
2020/07/08 05:35:49;;;;;;;4.7;2.9;;;;;;;14.03;73.08301;95314.98;;;;
2020/07/08 05:36:50;;;;;;;4.7;2.9;;;;;;;14.03;73.08301;95314.98;;;;
2020/07/08 05:37:50;;;;;;;5.699998;2.7;;;;;;;14.42;72.61816;95320.12;;;;
2020/07/08 05:38:51;;;;;;;5.699998;2.7;;;;;;;14.42;72.61816;95320.12;;;;
2020/07/08 05:39:51;;;;;;;5.699998;2.7;;;;;;;14.42;72.61816;95320.12;;;;
2020/07/08 05:40:52;;;;;;;5.699998;2.7;;;;;;;14.42;72.61816;95320.12;;;;
2020/07/08 05:41:52;;;;;;;5.699998;2.7;;;;;;;14.42;72.61816;95320.12;;;;
2020/07/08 05:42:53;;;;;;;5.699998;2.7;;;;;;;14.42;72.61816;95320.12;;;;
2020/07/08 05:43:53;;;;;;;5.699998;2.7;;;;;;;14.42;72.61816;95320.12;;;;